createdAt,value
2023-05-12T00:00:19.665Z,4.50
2023-05-12T00:02:47.324Z,4.93
2023-05-12T00:05:14.675Z,5.03
2023-05-12T00:07:42.116Z,4.75
2023-05-12T00:10:09.772Z,4.63
2023-05-12T00:12:37.368Z,4.90
2023-05-12T00:15:05.771Z,4.45
2023-05-12T00:17:33.001Z,5.15
2023-05-12T00:20:00.455Z,4.70
2023-05-12T00:22:27.798Z,4.38
2023-05-12T00:24:55.250Z,5.00
2023-05-12T00:27:22.563Z,4.80
2023-05-12T00:29:49.860Z,4.40
2023-05-12T00:32:17.216Z,4.32
2023-05-12T00:34:44.342Z,4.57
2023-05-12T00:37:11.510Z,4.25
2023-05-12T00:39:38.923Z,4.55
2023-05-12T00:42:06.688Z,4.78
2023-05-12T00:44:34.278Z,4.55
2023-05-12T00:47:01.587Z,4.28
2023-05-12T00:49:29.018Z,4.25
2023-05-12T00:51:59.101Z,4.82
2023-05-12T00:54:27.465Z,4.65
2023-05-12T00:56:55.331Z,4.35
2023-05-12T00:59:23.630Z,4.15
2023-05-12T01:01:51.001Z,4.35
2023-05-12T01:04:18.347Z,4.63
2023-05-12T01:06:55.038Z,4.18
2023-05-12T01:09:22.474Z,4.55
2023-05-12T01:11:49.977Z,4.50
2023-05-12T01:14:18.260Z,4.70
2023-05-12T01:16:56.773Z,4.03
2023-05-12T01:19:52.494Z,4.20
2023-05-12T01:22:21.681Z,4.07
2023-05-12T01:24:58.088Z,4.20
2023-05-12T01:27:27.765Z,4.32
2023-05-12T01:30:00.638Z,4.43
2023-05-12T01:32:30.698Z,4.32
2023-05-12T01:34:58.817Z,4.35
2023-05-12T01:37:27.130Z,4.32
2023-05-12T01:39:55.612Z,4.63
2023-05-12T01:42:22.794Z,4.22
2023-05-12T01:44:50.635Z,3.90
2023-05-12T01:47:18.059Z,4.60
2023-05-12T01:50:04.048Z,4.53
2023-05-12T01:52:31.580Z,4.28
2023-05-12T01:54:59.029Z,4.07
2023-05-12T01:57:31.178Z,4.50
2023-05-12T02:00:00.907Z,4.30
2023-05-12T02:02:30.457Z,4.78
2023-05-12T02:04:57.855Z,4.07
2023-05-12T02:07:25.090Z,4.15
2023-05-12T02:09:52.657Z,4.60
2023-05-12T02:12:20.168Z,4.28
2023-05-12T02:14:47.722Z,4.78
2023-05-12T02:17:15.264Z,4.22
2023-05-12T02:19:42.723Z,4.25
2023-05-12T02:22:12.899Z,4.03
2023-05-12T02:24:40.214Z,4.38
2023-05-12T02:27:07.622Z,4.47
2023-05-12T02:29:34.985Z,4.10
2023-05-12T02:32:02.556Z,3.92
2023-05-12T02:34:29.943Z,4.22
2023-05-12T02:36:57.279Z,4.63
2023-05-12T02:39:24.726Z,3.88
2023-05-12T02:41:51.994Z,4.22
2023-05-12T02:44:22.561Z,4.40
2023-05-12T02:46:50.570Z,4.82
2023-05-12T02:49:17.942Z,4.70
2023-05-12T02:51:46.582Z,4.72
2023-05-12T02:54:13.819Z,4.70
2023-05-12T02:56:41.069Z,5.00
2023-05-12T02:59:08.416Z,4.45
2023-05-12T03:01:35.893Z,4.70
2023-05-12T03:04:03.283Z,4.90
2023-05-12T03:06:30.961Z,4.40
2023-05-12T03:08:59.984Z,5.30
2023-05-12T03:11:27.312Z,4.45
2023-05-12T03:13:54.586Z,5.00
2023-05-12T03:16:22.350Z,4.95
2023-05-12T03:18:49.893Z,4.97
2023-05-12T03:21:17.414Z,5.40
2023-05-12T03:23:44.600Z,5.05
2023-05-12T03:26:11.788Z,4.80
2023-05-12T03:28:39.400Z,4.90
2023-05-12T03:31:06.885Z,5.18
2023-05-12T03:33:34.152Z,5.18
2023-05-12T03:36:01.415Z,5.50
2023-05-12T03:38:29.015Z,5.70
2023-05-12T03:41:08.888Z,5.40
2023-05-12T03:43:36.930Z,5.10
2023-05-12T03:46:04.480Z,4.78
2023-05-12T03:48:32.078Z,4.88
2023-05-12T03:50:59.388Z,5.13
2023-05-12T03:53:28.428Z,4.78
2023-05-12T03:55:56.846Z,5.28
2023-05-12T03:58:24.521Z,5.47
2023-05-12T04:00:51.920Z,4.80
2023-05-12T04:03:19.307Z,4.55
2023-05-12T04:05:46.751Z,5.03
2023-05-12T04:08:14.962Z,5.00
2023-05-12T04:10:42.726Z,4.57
2023-05-12T04:13:09.983Z,5.20
2023-05-12T04:15:37.549Z,4.90
2023-05-12T04:18:04.943Z,4.85
2023-05-12T04:20:32.337Z,5.18
2023-05-12T04:22:59.722Z,5.70
2023-05-12T04:25:27.109Z,4.90
2023-05-12T04:27:54.392Z,4.53
2023-05-12T04:30:22.695Z,4.57
2023-05-12T04:32:50.187Z,5.10
2023-05-12T04:35:17.667Z,4.70
2023-05-12T04:37:45.013Z,4.75
2023-05-12T04:40:12.533Z,4.85
2023-05-12T04:42:39.735Z,4.68
2023-05-12T04:45:09.898Z,5.28
2023-05-12T04:47:37.400Z,5.07
2023-05-12T04:50:06.064Z,4.55
2023-05-12T04:52:33.569Z,5.25
2023-05-12T04:55:00.895Z,5.03
2023-05-12T04:57:28.467Z,5.20
2023-05-12T04:59:56.776Z,5.75
2023-05-12T05:02:25.681Z,4.28
2023-05-12T05:04:53.127Z,4.55
2023-05-12T05:07:22.585Z,5.15
2023-05-12T05:09:49.969Z,5.22
2023-05-12T05:12:17.346Z,4.70
2023-05-12T05:14:44.987Z,5.05
2023-05-12T05:17:13.351Z,5.30
2023-05-12T05:19:55.233Z,4.35
2023-05-12T05:22:25.847Z,4.88
2023-05-12T05:24:53.255Z,4.75
2023-05-12T05:27:20.950Z,4.65
2023-05-12T05:29:49.554Z,4.70
2023-05-12T05:32:17.270Z,4.93
2023-05-12T05:34:45.157Z,4.93
2023-05-12T05:37:13.159Z,4.47
2023-05-12T05:39:40.621Z,5.38
2023-05-12T05:42:08.173Z,4.90
2023-05-12T05:44:36.371Z,5.10
2023-05-12T05:47:05.888Z,5.10
2023-05-12T05:49:33.404Z,4.65
2023-05-12T05:52:01.555Z,6.03
2023-05-12T05:54:29.080Z,4.63
2023-05-12T05:56:56.582Z,4.90
2023-05-12T05:59:24.662Z,4.95
2023-05-12T06:01:52.278Z,4.78
2023-05-12T06:04:19.778Z,6.88
2023-05-12T06:06:47.635Z,5.50
2023-05-12T06:09:15.967Z,4.95
2023-05-12T06:11:43.372Z,7.07
2023-05-12T06:14:11.676Z,5.93
2023-05-12T06:16:39.791Z,4.72
2023-05-12T06:19:08.613Z,4.70
2023-05-12T06:21:35.927Z,5.25
2023-05-12T06:24:03.967Z,4.82
2023-05-12T06:26:31.336Z,4.70
2023-05-12T06:28:58.713Z,4.65
2023-05-12T06:31:26.253Z,4.50
2023-05-12T06:33:53.544Z,4.13
2023-05-12T06:36:21.120Z,4.15
2023-05-12T06:38:48.522Z,4.38
2023-05-12T06:41:15.915Z,4.10
2023-05-12T06:43:43.618Z,4.00
2023-05-12T06:46:10.993Z,3.72
2023-05-12T06:48:38.942Z,4.00
2023-05-12T06:51:07.279Z,3.88
2023-05-12T06:53:38.031Z,4.00
2023-05-12T06:56:06.611Z,3.70
2023-05-12T06:58:35.219Z,4.05
2023-05-12T07:01:03.004Z,4.10
2023-05-12T07:03:33.476Z,3.78
2023-05-12T07:06:01.618Z,3.97
2023-05-12T07:08:29.756Z,3.92
2023-05-12T07:11:00.183Z,3.72
2023-05-12T07:15:56.883Z,3.70
2023-05-12T07:18:25.147Z,3.88
2023-05-12T07:20:53.928Z,3.28
2023-05-12T07:23:22.077Z,3.42
2023-05-12T07:25:49.964Z,4.00
2023-05-12T07:28:17.669Z,3.83
2023-05-12T07:30:45.616Z,3.70
2023-05-12T07:33:13.711Z,3.78
2023-05-12T07:35:41.859Z,8.95
2023-05-12T07:38:10.079Z,3.60
2023-05-12T07:40:37.947Z,3.53
2023-05-12T07:43:05.786Z,3.83
2023-05-12T07:45:33.596Z,3.53
2023-05-12T07:48:01.555Z,3.40
2023-05-12T07:50:29.485Z,3.47
2023-05-12T07:52:57.489Z,3.40
2023-05-12T07:55:26.196Z,3.25
2023-05-12T07:57:54.479Z,3.35
2023-05-12T08:00:22.877Z,3.40
2023-05-12T08:02:50.975Z,3.35
2023-05-12T08:05:19.396Z,3.10
2023-05-12T08:07:47.762Z,2.70
2023-05-12T08:10:15.433Z,2.60
2023-05-12T08:12:44.263Z,2.50
2023-05-12T08:15:12.950Z,2.78
2023-05-12T08:17:40.700Z,2.63
2023-05-12T08:20:09.711Z,2.83
2023-05-12T08:22:37.623Z,3.08
2023-05-12T08:25:06.476Z,2.83
2023-05-12T08:27:34.766Z,2.60
2023-05-12T08:30:02.889Z,2.83
2023-05-12T08:32:30.929Z,2.80
2023-05-12T08:34:59.122Z,2.50
2023-05-12T08:37:27.826Z,3.00
2023-05-12T08:39:56.187Z,2.17
2023-05-12T08:42:43.622Z,2.45
2023-05-12T08:45:12.614Z,3.03
2023-05-12T08:47:44.032Z,2.10
2023-05-12T08:50:14.717Z,2.30
2023-05-12T08:52:42.565Z,2.80
2023-05-12T08:55:11.436Z,2.58
2023-05-12T08:57:43.208Z,2.85
2023-05-12T09:00:12.564Z,2.50
2023-05-12T09:02:52.993Z,2.17
2023-05-12T09:05:23.869Z,2.03
2023-05-12T09:07:55.304Z,2.35
2023-05-12T09:13:01.676Z,2.25
2023-05-12T09:15:42.539Z,1.95
2023-05-12T09:18:10.638Z,2.45
2023-05-12T09:20:38.894Z,2.00
2023-05-12T09:23:18.329Z,1.92
2023-05-12T09:25:47.334Z,1.98
2023-05-12T09:28:15.728Z,1.98
2023-05-12T09:30:43.737Z,2.28
2023-05-12T09:33:13.318Z,2.13
2023-05-12T09:35:46.999Z,1.77
2023-05-12T09:38:15.667Z,2.00
2023-05-12T09:40:43.980Z,1.90
2023-05-12T09:43:15.084Z,2.00
2023-05-12T09:45:44.661Z,1.90
2023-05-12T09:48:14.558Z,2.10
2023-05-12T09:50:51.790Z,2.33
2023-05-12T09:53:23.371Z,1.80
2023-05-12T09:55:51.793Z,2.50
2023-05-12T09:58:21.157Z,1.83
2023-05-12T10:01:12.898Z,2.13
2023-05-12T10:03:38.910Z,2.42
2023-05-12T10:06:09.138Z,2.05
2023-05-12T10:08:44.354Z,1.83
2023-05-12T10:11:12.762Z,2.63
2023-05-12T10:13:42.214Z,2.00
2023-05-12T10:16:11.024Z,1.95
2023-05-12T10:18:40.872Z,1.90
2023-05-12T10:21:12.313Z,2.03
2023-05-12T10:23:44.993Z,2.03
2023-05-12T10:26:14.000Z,2.17
2023-05-12T10:28:43.316Z,1.70
2023-05-12T10:31:12.544Z,2.00
2023-05-12T10:33:40.424Z,2.22
2023-05-12T10:36:20.638Z,1.88
2023-05-12T10:38:52.253Z,1.58
2023-05-12T10:41:34.785Z,2.25
2023-05-12T10:44:03.107Z,1.77
2023-05-12T10:46:31.531Z,1.70
2023-05-12T10:49:06.999Z,1.98
2023-05-12T10:51:45.344Z,1.88
2023-05-12T10:54:20.352Z,2.08
2023-05-12T10:56:49.570Z,1.92
2023-05-12T10:59:22.452Z,2.58
2023-05-12T11:02:14.123Z,1.90
2023-05-12T11:04:50.577Z,1.65
2023-05-12T11:07:24.259Z,1.90
2023-05-12T11:09:58.549Z,1.77
2023-05-12T11:12:33.155Z,2.35
2023-05-12T11:15:05.752Z,2.05
2023-05-12T11:17:33.688Z,1.98
2023-05-12T11:20:01.972Z,1.80
2023-05-12T11:22:30.338Z,2.10
2023-05-12T11:24:58.387Z,2.13
2023-05-12T11:27:26.354Z,1.88
2023-05-12T11:30:03.184Z,1.98
2023-05-12T11:32:31.443Z,2.08
2023-05-12T11:35:10.073Z,1.90
2023-05-12T11:37:40.391Z,1.67
2023-05-12T11:40:19.362Z,2.45
2023-05-12T11:42:56.795Z,2.13
2023-05-12T11:45:27.453Z,2.08
2023-05-12T11:48:08.010Z,2.10
2023-05-12T11:50:39.972Z,1.98
2023-05-12T11:53:16.175Z,1.70
2023-05-12T11:55:55.329Z,2.10
2023-05-12T11:58:27.114Z,2.13
2023-05-12T12:00:55.557Z,2.45
2023-05-12T12:03:24.702Z,2.42
2023-05-12T12:06:01.912Z,2.00
2023-05-12T12:08:30.323Z,2.20
2023-05-12T12:10:59.642Z,2.05
2023-05-12T12:13:29.306Z,2.13
2023-05-12T12:15:57.433Z,2.40
2023-05-12T12:18:25.586Z,1.83
2023-05-12T12:20:53.369Z,2.08
2023-05-12T12:23:21.567Z,2.20
2023-05-12T12:25:49.461Z,2.05
2023-05-12T12:28:17.600Z,1.90
2023-05-12T12:30:45.929Z,2.30
2023-05-12T12:33:13.762Z,2.25
2023-05-12T12:35:42.086Z,2.45
2023-05-12T12:38:10.059Z,2.00
2023-05-12T12:40:37.889Z,1.65
2023-05-12T12:43:05.751Z,1.80
2023-05-12T12:45:33.712Z,2.10
2023-05-12T12:48:01.689Z,2.10
2023-05-12T12:50:30.935Z,2.42
2023-05-12T12:52:58.666Z,2.20
2023-05-12T12:55:26.868Z,1.67
2023-05-12T12:57:54.592Z,2.20
2023-05-12T13:00:23.950Z,2.00
2023-05-12T13:02:52.527Z,1.70
2023-05-12T13:05:21.298Z,2.10
2023-05-12T13:07:50.534Z,2.08
2023-05-12T13:10:18.962Z,2.15
2023-05-12T13:12:47.148Z,2.20
2023-05-12T13:15:16.013Z,2.13
2023-05-12T13:17:48.460Z,2.60
2023-05-12T13:20:16.759Z,2.17
2023-05-12T13:22:46.618Z,1.67
2023-05-12T13:25:14.672Z,2.38
2023-05-12T13:27:43.049Z,1.98
2023-05-12T13:30:13.481Z,2.05
2023-05-12T13:32:42.153Z,1.98
2023-05-12T13:35:10.637Z,1.80
2023-05-12T13:37:38.777Z,2.20
2023-05-12T13:40:07.742Z,2.15
2023-05-12T13:42:35.676Z,2.28
2023-05-12T13:45:04.352Z,2.22
2023-05-12T13:47:32.411Z,1.88
2023-05-12T13:50:00.544Z,2.08
2023-05-12T13:52:28.752Z,1.70
2023-05-12T13:54:56.771Z,2.13
2023-05-12T13:57:24.735Z,2.20
2023-05-12T13:59:52.640Z,2.13
2023-05-12T14:02:20.716Z,2.13
2023-05-12T14:04:49.440Z,2.10
2023-05-12T14:07:19.662Z,2.35
2023-05-12T14:09:47.604Z,1.80
2023-05-12T14:12:16.610Z,1.83
2023-05-12T14:14:49.955Z,1.98
2023-05-12T14:17:19.081Z,2.10
2023-05-12T14:19:47.149Z,2.08
2023-05-12T14:22:25.409Z,2.08
2023-05-12T14:24:56.079Z,1.80
2023-05-12T14:27:24.336Z,2.15
2023-05-12T14:29:52.446Z,2.03
2023-05-12T14:32:20.642Z,1.80
2023-05-12T14:34:48.662Z,2.20
2023-05-12T14:37:18.544Z,1.80
2023-05-12T14:39:46.618Z,2.05
2023-05-12T14:42:14.980Z,2.08
2023-05-12T14:44:42.746Z,1.80
2023-05-12T14:47:10.357Z,2.25
2023-05-12T14:49:38.587Z,1.83
2023-05-12T14:52:06.996Z,2.00
2023-05-12T14:54:35.209Z,2.10
2023-05-12T14:57:04.627Z,2.63
2023-05-12T14:59:33.209Z,1.83
2023-05-12T15:02:01.181Z,2.40
2023-05-12T15:04:29.630Z,2.22
2023-05-12T15:06:57.711Z,1.92
2023-05-12T15:09:25.307Z,2.10
2023-05-12T15:11:53.604Z,1.77
2023-05-12T15:14:21.371Z,1.83
2023-05-12T15:16:49.458Z,1.90
2023-05-12T15:19:17.886Z,2.00
2023-05-12T15:21:45.732Z,2.38
2023-05-12T15:24:15.919Z,2.33
2023-05-12T15:26:43.888Z,2.05
2023-05-12T15:29:11.661Z,2.25
2023-05-12T15:31:39.756Z,1.90
2023-05-12T15:34:07.808Z,1.70
2023-05-12T15:36:35.919Z,1.80
2023-05-12T15:39:03.993Z,1.90
2023-05-12T15:41:32.068Z,2.00
2023-05-12T15:43:59.958Z,2.00
2023-05-12T15:46:27.931Z,2.17
2023-05-12T15:48:56.158Z,1.75
2023-05-12T15:51:28.878Z,2.10
2023-05-12T15:53:56.761Z,2.20
2023-05-12T15:56:24.790Z,2.10
2023-05-12T15:58:53.231Z,2.20
2023-05-12T16:01:21.678Z,1.77
2023-05-12T16:03:54.153Z,1.77
2023-05-12T16:06:22.396Z,2.00
2023-05-12T16:08:51.197Z,1.75
2023-05-12T16:11:19.257Z,2.08
2023-05-12T16:13:47.676Z,2.10
2023-05-12T16:16:16.331Z,1.90
2023-05-12T16:18:44.426Z,1.90
2023-05-12T16:21:13.105Z,2.17
2023-05-12T16:23:41.125Z,1.90
2023-05-12T16:26:09.566Z,2.10
2023-05-12T16:28:37.404Z,1.95
2023-05-12T16:31:05.396Z,5.50
2023-05-12T16:33:33.166Z,2.50
2023-05-12T16:36:01.381Z,1.95
2023-05-12T16:38:30.407Z,2.08
2023-05-12T16:40:58.096Z,1.90
2023-05-12T16:43:26.551Z,1.88
2023-05-12T16:46:04.783Z,2.00
2023-05-12T16:48:36.734Z,1.77
2023-05-12T16:51:09.560Z,1.90
2023-05-12T16:53:39.054Z,1.58
2023-05-12T16:56:07.535Z,2.10
2023-05-12T16:58:35.496Z,1.85
2023-05-12T17:01:04.005Z,1.70
2023-05-12T17:03:32.199Z,1.88
2023-05-12T17:06:00.263Z,1.95
2023-05-12T17:08:28.308Z,2.25
2023-05-12T17:10:56.473Z,1.98
2023-05-12T17:13:24.445Z,1.90
2023-05-12T17:15:52.736Z,2.05
2023-05-12T17:18:21.162Z,1.95
2023-05-12T17:20:49.009Z,2.10
2023-05-12T17:23:16.984Z,1.50
2023-05-12T17:25:44.898Z,2.00
2023-05-12T17:28:13.174Z,1.52
2023-05-12T17:30:42.079Z,2.15
2023-05-12T17:33:10.288Z,2.15
2023-05-12T17:35:38.255Z,1.67
2023-05-12T17:38:06.349Z,1.88
2023-05-12T17:40:34.529Z,1.90
2023-05-12T17:43:02.854Z,2.05
2023-05-12T17:45:30.593Z,1.63
2023-05-12T17:47:58.919Z,2.00
2023-05-12T17:50:27.322Z,2.38
2023-05-12T17:52:56.225Z,2.08
2023-05-12T17:55:24.324Z,2.50
2023-05-12T17:57:52.982Z,2.72
2023-05-12T18:00:21.432Z,1.85
2023-05-12T18:02:49.588Z,2.72
2023-05-12T18:05:17.736Z,3.38
2023-05-12T18:07:45.611Z,3.10
2023-05-12T18:10:13.465Z,3.63
2023-05-12T18:12:41.398Z,2.53
2023-05-12T18:15:09.998Z,2.22
2023-05-12T18:17:38.193Z,2.60
2023-05-12T18:20:07.612Z,2.42
2023-05-12T18:22:35.562Z,2.60
2023-05-12T18:25:03.841Z,2.33
2023-05-12T18:27:32.178Z,2.75
2023-05-12T18:30:00.071Z,2.30
2023-05-12T18:32:28.541Z,2.30
2023-05-12T18:34:56.808Z,2.50
2023-05-12T18:37:25.356Z,1.92
2023-05-12T18:39:55.065Z,2.63
2023-05-12T18:42:23.065Z,3.23
2023-05-12T18:44:52.036Z,4.18
2023-05-12T18:47:20.244Z,4.60
2023-05-12T18:49:48.406Z,6.00
2023-05-12T18:52:16.505Z,8.13
2023-05-12T18:54:48.144Z,7.30
2023-05-12T18:57:17.838Z,4.97
2023-05-12T18:59:46.027Z,3.70
2023-05-12T19:02:14.226Z,2.92
2023-05-12T19:04:42.559Z,3.08
2023-05-12T19:07:10.749Z,2.50
2023-05-12T19:09:38.491Z,3.42
2023-05-12T19:12:11.302Z,3.55
2023-05-12T19:14:43.657Z,4.10
2023-05-12T19:17:12.136Z,4.95
2023-05-12T19:19:40.437Z,7.45
2023-05-12T19:22:08.672Z,11.82
2023-05-12T19:24:38.465Z,12.90
2023-05-12T19:27:06.567Z,10.73
2023-05-12T19:29:34.592Z,9.13
2023-05-12T19:32:02.901Z,7.07
2023-05-12T19:34:32.137Z,6.07
2023-05-12T19:37:03.249Z,7.50
2023-05-12T19:39:31.352Z,9.75
2023-05-12T19:41:59.556Z,10.35
2023-05-12T19:44:29.421Z,9.20
2023-05-12T19:47:04.954Z,8.40
2023-05-12T19:49:34.945Z,7.07
2023-05-12T19:52:03.962Z,6.28
2023-05-12T19:54:32.638Z,7.20
2023-05-12T19:57:00.718Z,7.43
2023-05-12T19:59:28.441Z,7.03
2023-05-12T20:01:56.999Z,5.78
2023-05-12T20:04:26.099Z,6.40
2023-05-12T20:06:55.090Z,5.50
2023-05-12T20:09:25.208Z,5.00
2023-05-12T20:11:53.380Z,4.75
2023-05-12T20:14:21.624Z,5.10
2023-05-12T20:16:49.735Z,4.88
2023-05-12T20:19:18.110Z,4.40
2023-05-12T20:21:46.200Z,4.45
2023-05-12T20:24:14.037Z,4.75
2023-05-12T20:26:42.009Z,4.90
2023-05-12T20:29:10.196Z,4.47
2023-05-12T20:31:38.126Z,5.20
2023-05-12T20:34:06.834Z,5.82
2023-05-12T20:36:34.609Z,5.97
2023-05-12T20:39:02.599Z,4.65
2023-05-12T20:41:30.326Z,6.78
2023-05-12T20:43:58.045Z,5.00
2023-05-12T20:46:26.716Z,4.68
2023-05-12T20:48:55.496Z,4.22
2023-05-12T20:51:23.847Z,5.13
2023-05-12T20:53:51.916Z,4.13
2023-05-12T20:56:23.096Z,4.10
2023-05-12T20:58:51.346Z,4.38
2023-05-12T21:01:19.489Z,3.88
2023-05-12T21:03:47.392Z,4.00
2023-05-12T21:06:15.627Z,4.28
2023-05-12T21:08:43.510Z,4.90
2023-05-12T21:11:16.374Z,5.53
2023-05-12T21:13:45.393Z,5.45
2023-05-12T21:16:14.200Z,4.93
2023-05-12T22:05:04.293Z,3.78
2023-05-12T22:20:27.765Z,4.70
2023-05-12T22:23:53.095Z,4.88
2023-05-12T22:35:31.762Z,4.68
2023-05-12T22:52:27.072Z,5.00
2023-05-12T22:59:17.383Z,5.00
2023-05-12T23:05:50.828Z,5.20
2023-05-12T23:12:36.224Z,6.00
2023-05-12T23:15:19.105Z,5.05
2023-05-12T23:18:17.252Z,5.82
2023-05-12T23:21:31.978Z,5.78
2023-05-12T23:24:52.586Z,4.80
2023-05-12T23:31:52.955Z,6.68
2023-05-12T23:38:25.286Z,5.30
2023-05-12T23:45:19.370Z,5.70
2023-05-12T23:51:26.201Z,5.90
2023-05-12T23:54:20.755Z,6.28
